createdAt,value
2022-12-11T00:02:53.970Z,46.97
2022-12-11T00:17:56.203Z,48.67
2022-12-11T00:32:58.156Z,47.05
2022-12-11T00:48:00.114Z,48.55
2022-12-11T01:03:02.453Z,47.53
2022-12-11T01:18:04.879Z,47.10
2022-12-11T01:33:06.966Z,49.45
2022-12-11T01:48:12.711Z,47.90
2022-12-11T02:03:14.793Z,46.88
2022-12-11T02:18:39.952Z,43.97
2022-12-11T02:33:52.489Z,44.53
2022-12-11T02:48:55.874Z,41.47
2022-12-11T03:03:58.727Z,38.28
2022-12-11T03:19:35.253Z,40.97
2022-12-11T03:34:56.941Z,40.57
2022-12-11T03:50:02.179Z,39.10
2022-12-11T04:05:04.382Z,41.45
2022-12-11T04:20:25.587Z,40.85
2022-12-11T04:35:27.853Z,43.22
2022-12-11T04:50:29.981Z,41.65
2022-12-11T05:05:31.849Z,39.90
2022-12-11T05:20:33.778Z,37.92
2022-12-11T05:35:35.667Z,34.92
2022-12-11T05:50:37.782Z,35.63
2022-12-11T06:05:41.543Z,31.92
2022-12-11T06:20:43.556Z,33.72
2022-12-11T06:35:45.637Z,31.00
2022-12-11T06:50:47.707Z,30.30
2022-12-11T07:05:51.127Z,29.38
2022-12-11T07:20:52.993Z,32.20
2022-12-11T07:35:55.144Z,31.08
2022-12-11T07:51:07.132Z,29.13
2022-12-11T08:06:10.147Z,26.70
2022-12-11T08:21:15.373Z,27.23
2022-12-11T08:36:20.978Z,23.73
2022-12-11T08:51:26.415Z,22.77
2022-12-11T09:06:30.311Z,19.38
2022-12-11T09:21:32.239Z,20.83
2022-12-11T09:36:35.070Z,21.10
2022-12-11T09:51:54.693Z,22.85
2022-12-11T10:07:13.520Z,23.75
2022-12-11T10:22:30.027Z,23.70
2022-12-11T10:37:31.976Z,18.40
2022-12-11T10:52:38.522Z,16.48
2022-12-11T11:07:40.657Z,17.77
2022-12-11T11:22:46.690Z,18.23
2022-12-11T11:38:17.827Z,20.67
2022-12-11T11:53:31.853Z,16.80
2022-12-11T12:08:48.897Z,18.35
2022-12-11T12:24:07.103Z,19.52
2022-12-11T12:39:25.723Z,20.07
2022-12-11T12:54:30.538Z,19.58
2022-12-11T13:09:32.478Z,20.80
2022-12-11T13:24:34.966Z,19.33
2022-12-11T13:39:39.186Z,16.00
2022-12-11T13:54:52.312Z,16.23
2022-12-11T14:10:09.707Z,19.00
2022-12-11T14:25:25.031Z,20.80
2022-12-11T14:40:35.798Z,18.20
2022-12-11T14:55:39.559Z,15.38
2022-12-11T15:10:54.574Z,16.60
2022-12-11T15:25:59.471Z,17.02
2022-12-11T15:41:02.597Z,16.45
2022-12-11T15:56:04.882Z,15.68
2022-12-11T16:11:06.900Z,16.65
2022-12-11T16:26:09.777Z,16.27
2022-12-11T16:41:11.901Z,14.95
2022-12-11T16:56:13.884Z,13.73
2022-12-11T17:11:18.366Z,15.88
2022-12-11T17:26:20.460Z,17.75
2022-12-11T17:41:22.677Z,17.17
2022-12-11T17:56:24.914Z,17.27
2022-12-11T18:11:26.897Z,20.25
2022-12-11T18:26:29.358Z,20.10
2022-12-11T18:41:31.257Z,22.25
2022-12-11T18:56:33.340Z,23.45
2022-12-11T19:11:36.579Z,22.92
2022-12-11T19:26:39.114Z,22.83
2022-12-11T19:41:41.478Z,24.85
2022-12-11T19:56:44.352Z,25.25
2022-12-11T20:11:47.922Z,24.20
2022-12-11T20:26:49.965Z,23.40
2022-12-11T20:41:51.945Z,24.38
2022-12-11T20:56:53.937Z,25.10
2022-12-11T21:11:58.742Z,24.25
2022-12-11T21:27:01.265Z,24.15
2022-12-11T21:42:03.671Z,23.17
2022-12-11T21:57:06.348Z,22.77
2022-12-11T22:12:08.758Z,23.58
2022-12-11T22:27:10.916Z,23.27
2022-12-11T22:42:12.870Z,23.20
2022-12-11T22:57:14.785Z,22.98
2022-12-11T23:12:18.922Z,23.10
2022-12-11T23:27:21.025Z,22.70
2022-12-11T23:42:23.085Z,24.77
2022-12-11T23:57:25.038Z,25.88
